Terminal Aerodrome Forecast
Issued by NWS

Home | Current Version | Previous Version | Text Only | Print | Product List | Glossary On
Versions: 1 2 3 4 5 6 7 8 9 10 11 12 13 14 15 16 17 18
000
FTUS45 KSLC 260529
TAF36U
TAF
K36U 260529Z 2606/2706 VRB04KT P6SM SCT030 BKN070
     FM261200 VRB03KT P6SM SCT060 SCT120
     FM270300 VRB04KT P6SM SCT040 BKN080=

USA.gov is the U.S. government's official web portal to all federal, state and local government web resources and services.